Terminal Aerodrome Forecast
Issued by NWS

Home | Current Version | Previous Version | Text Only | Print | Product List | Glossary On
Versions: 1 2 3 4 5 6 7 8 9 10 11 12 13 14 15 16 17 18 19 20
546
FTUS45 KABQ 301738
TAFTCC
TAF
KTCC 301738Z 3018/3118 22010KT P6SM FEW060 SCT150
     FM302000 21013G23KT P6SM SCT070
     FM302300 20015G25KT P6SM VCSH SCT080 BKN150
     FM310100 17015KT P6SM VCTS BKN070CB OVC140
     FM310300 15013KT P6SM FEW070 SCT140
     FM310700 22008KT P6SM SCT040=

USA.gov is the U.S. government's official web portal to all federal, state and local government web resources and services.